Time,TemperatureF,DewpointF,PressureIn,WindDirection,WindDirectionDegrees,WindSpeedMPH,WindSpeedGustMPH,Humidity,HourlyPrecipIn,Conditions,Clouds,dailyrainin,SoftwareType,DateUTC
2013-08-08 00:05:00,67.6,65.5,30.12,South,186,3.0,4.0,93,0.00,,,0.00,Wunderground v.1.15,2013-08-08 04:05:00,
2013-08-08 00:10:00,67.6,65.5,30.12,SSE,161,2.0,4.0,93,0.00,,,0.00,Wunderground v.1.15,2013-08-08 04:10:00,
2013-08-08 00:15:00,67.7,65.6,30.12,SSW,207,3.0,4.0,93,0.00,,,0.00,Wunderground v.1.15,2013-08-08 04:15:00,
2013-08-08 00:20:00,67.8,65.4,30.11,SSW,200,4.0,4.0,92,0.00,,,0.00,Wunderground v.1.15,2013-08-08 04:20:00,
2013-08-08 00:25:00,67.8,65.7,30.11,SSW,195,4.0,5.0,93,0.00,,,0.00,Wunderground v.1.15,2013-08-08 04:25:00,
2013-08-08 00:30:00,67.9,65.5,30.11,SSW,194,4.0,5.0,92,0.00,,,0.00,Wunderground v.1.15,2013-08-08 04:30:00,
2013-08-08 00:35:00,67.9,65.5,30.11,South,174,4.0,5.0,92,0.00,,,0.00,Wunderground v.1.15,2013-08-08 04:35:00,
2013-08-08 00:40:00,68.0,65.6,30.11,SSW,199,4.0,7.0,92,0.00,,,0.00,Wunderground v.1.15,2013-08-08 04:40:00,
2013-08-08 00:45:00,68.0,65.6,30.12,South,184,4.0,7.0,92,0.00,,,0.00,Wunderground v.1.15,2013-08-08 04:45:00,
2013-08-08 00:50:00,68.0,65.6,30.11,South,178,3.0,4.0,92,0.00,,,0.00,Wunderground v.1.15,2013-08-08 04:50:00,
2013-08-08 00:55:00,68.0,65.6,30.12,South,182,3.0,4.0,92,0.00,,,0.00,Wunderground v.1.15,2013-08-08 04:55:00,
2013-08-08 01:00:00,68.0,65.6,30.12,SSE,165,3.0,3.0,92,0.00,,,0.00,Wunderground v.1.15,2013-08-08 05:00:00,
2013-08-08 01:05:00,68.1,65.7,30.12,South,171,3.0,3.0,92,0.00,,,0.00,Wunderground v.1.15,2013-08-08 05:05:00,
2013-08-08 01:10:00,68.1,65.7,30.12,South,178,4.0,5.0,92,0.00,,,0.00,Wunderground v.1.15,2013-08-08 05:10:00,
2013-08-08 01:15:00,68.0,65.6,30.12,South,181,4.0,5.0,92,0.00,,,0.00,Wunderground v.1.15,2013-08-08 05:15:00,
2013-08-08 01:25:00,68.0,65.6,30.12,SSE,167,3.0,3.0,92,0.00,,,0.00,Wunderground v.1.15,2013-08-08 05:25:00,
2013-08-08 01:30:00,68.0,65.9,30.12,SSE,157,2.0,2.0,93,0.00,,,0.00,Wunderground v.1.15,2013-08-08 05:30:00,
2013-08-08 01:35:00,68.0,65.9,30.12,South,185,2.0,5.0,93,0.00,,,0.00,Wunderground v.1.15,2013-08-08 05:35:00,
2013-08-08 01:40:00,68.0,65.9,30.11,South,187,3.0,3.0,93,0.00,,,0.00,Wunderground v.1.15,2013-08-08 05:40:00,
2013-08-08 01:45:00,68.0,65.9,30.11,South,177,3.0,5.0,93,0.00,,,0.00,Wunderground v.1.15,2013-08-08 05:45:00,
2013-08-08 01:50:00,68.0,65.9,30.11,SSE,166,3.0,5.0,93,0.00,,,0.00,Wunderground v.1.15,2013-08-08 05:50:00,
2013-08-08 01:55:00,68.0,65.9,30.11,SSE,168,3.0,5.0,93,0.00,,,0.00,Wunderground v.1.15,2013-08-08 05:55:00,
2013-08-08 02:00:00,68.0,65.9,30.11,South,170,4.0,5.0,93,0.00,,,0.00,Wunderground v.1.15,2013-08-08 06:00:00,
2013-08-08 02:05:00,68.0,65.9,30.12,South,175,4.0,5.0,93,0.00,,,0.00,Wunderground v.1.15,2013-08-08 06:05:00,
2013-08-08 02:15:00,68.1,66.0,30.11,SSE,150,3.0,4.0,93,0.00,,,0.00,Wunderground v.1.15,2013-08-08 06:15:00,
2013-08-08 02:25:00,68.1,66.0,30.11,South,171,2.0,3.0,93,0.00,,,0.00,Wunderground v.1.15,2013-08-08 06:25:00,
2013-08-08 02:30:00,68.1,66.0,30.11,SSE,151,2.0,3.0,93,0.00,,,0.00,Wunderground v.1.15,2013-08-08 06:30:00,
2013-08-08 02:35:00,68.1,66.0,30.11,SSE,161,2.0,3.0,93,0.00,,,0.00,Wunderground v.1.15,2013-08-08 06:35:00,
2013-08-08 02:40:00,68.1,66.0,30.11,South,174,2.0,2.0,93,0.00,,,0.00,Wunderground v.1.15,2013-08-08 06:40:00,
2013-08-08 02:45:00,68.0,65.9,30.11,South,179,1.0,2.0,93,0.00,,,0.00,Wunderground v.1.15,2013-08-08 06:45:00,
2013-08-08 02:50:00,67.9,65.8,30.11,South,171,1.0,1.0,93,0.00,,,0.00,Wunderground v.1.15,2013-08-08 06:50:00,
2013-08-08 03:00:00,67.7,65.6,30.11,SSE,168,1.0,2.0,93,0.00,,,0.00,Wunderground v.1.15,2013-08-08 07:00:00,
2013-08-08 03:05:00,67.6,65.5,30.11,SSE,154,1.0,2.0,93,0.00,,,0.00,Wunderground v.1.15,2013-08-08 07:05:00,
2013-08-08 03:10:00,67.4,65.6,30.10,SSE,157,2.0,2.0,94,0.00,,,0.00,Wunderground v.1.15,2013-08-08 07:10:00,
2013-08-08 03:15:00,67.3,65.5,30.10,SSE,167,2.0,2.0,94,0.00,,,0.00,Wunderground v.1.15,2013-08-08 07:15:00,
2013-08-08 03:20:00,67.2,65.4,30.11,South,169,2.0,2.0,94,0.00,,,0.00,Wunderground v.1.15,2013-08-08 07:20:00,
2013-08-08 03:25:00,67.1,65.3,30.11,South,169,1.0,2.0,94,0.00,,,0.00,Wunderground v.1.15,2013-08-08 07:25:00,
2013-08-08 03:30:00,67.0,65.2,30.11,South,169,0.0,1.0,94,0.00,,,0.00,Wunderground v.1.15,2013-08-08 07:30:00,
2013-08-08 03:40:00,66.7,64.9,30.11,South,169,0.0,1.0,94,0.00,,,0.00,Wunderground v.1.15,2013-08-08 07:40:00,
2013-08-08 03:45:00,66.4,64.6,30.11,South,169,0.0,1.0,94,0.00,,,0.00,Wunderground v.1.15,2013-08-08 07:45:00,
2013-08-08 03:50:00,66.2,64.7,30.11,South,169,0.0,1.0,95,0.00,,,0.00,Wunderground v.1.15,2013-08-08 07:50:00,
2013-08-08 03:55:00,66.0,64.5,30.11,South,169,1.0,1.0,95,0.00,,,0.00,Wunderground v.1.15,2013-08-08 07:55:00,
2013-08-08 04:00:00,65.9,64.4,30.11,South,169,1.0,1.0,95,0.00,,,0.00,Wunderground v.1.15,2013-08-08 08:00:00,
2013-08-08 04:05:00,65.9,64.4,30.11,South,169,0.0,1.0,95,0.00,,,0.00,Wunderground v.1.15,2013-08-08 08:05:00,
2013-08-08 04:10:00,65.9,64.7,30.11,South,169,1.0,1.0,96,0.00,,,0.00,Wunderground v.1.15,2013-08-08 08:10:00,
2013-08-08 04:15:00,66.1,64.9,30.11,South,176,1.0,2.0,96,0.00,,,0.00,Wunderground v.1.15,2013-08-08 08:15:00,
2013-08-08 04:20:00,66.4,65.2,30.11,South,173,1.0,1.0,96,0.00,,,0.00,Wunderground v.1.15,2013-08-08 08:20:00,
2013-08-08 04:30:00,66.7,65.2,30.10,South,173,1.0,1.0,95,0.00,,,0.00,Wunderground v.1.15,2013-08-08 08:30:00,
2013-08-08 04:35:00,66.8,65.3,30.10,South,173,1.0,1.0,95,0.00,,,0.00,Wunderground v.1.15,2013-08-08 08:35:00,
2013-08-08 04:40:00,66.7,65.2,30.10,South,173,0.0,1.0,95,0.00,,,0.00,Wunderground v.1.15,2013-08-08 08:40:00,
2013-08-08 04:45:00,66.7,65.2,30.10,SSE,162,0.0,1.0,95,0.00,,,0.00,Wunderground v.1.15,2013-08-08 08:45:00,
2013-08-08 04:50:00,66.7,65.2,30.10,SSE,162,0.0,1.0,95,0.00,,,0.00,Wunderground v.1.15,2013-08-08 08:50:00,
2013-08-08 04:55:00,66.7,65.2,30.10,SSE,162,0.0,1.0,95,0.00,,,0.00,Wunderground v.1.15,2013-08-08 08:55:00,
2013-08-08 05:05:00,66.6,65.1,30.11,SW,232,0.0,2.0,95,0.00,,,0.00,Wunderground v.1.15,2013-08-08 09:05:00,
2013-08-08 05:15:00,66.7,65.2,30.10,SSW,206,2.0,3.0,95,0.00,,,0.00,Wunderground v.1.15,2013-08-08 09:15:00,
2013-08-08 05:20:00,66.7,64.9,30.11,SW,218,2.0,2.0,94,0.00,,,0.00,Wunderground v.1.15,2013-08-08 09:20:00,
2013-08-08 05:25:00,66.6,64.8,30.11,SW,218,0.0,2.0,94,0.00,,,0.00,Wunderground v.1.15,2013-08-08 09:25:00,
2013-08-08 05:30:00,66.7,64.9,30.11,South,190,1.0,1.0,94,0.00,,,0.00,Wunderground v.1.15,2013-08-08 09:30:00,
2013-08-08 05:35:00,66.7,64.9,30.11,SSW,210,3.0,3.0,94,0.00,,,0.00,Wunderground v.1.15,2013-08-08 09:35:00,
2013-08-08 05:40:00,66.5,64.7,30.11,SW,221,3.0,4.0,94,0.00,,,0.00,Wunderground v.1.15,2013-08-08 09:40:00,
2013-08-08 05:45:00,66.3,64.5,30.11,SW,218,2.0,4.0,94,0.00,,,0.00,Wunderground v.1.15,2013-08-08 09:45:00,
2013-08-08 05:55:00,66.6,64.8,30.12,SW,220,5.0,5.0,94,0.00,,,0.00,Wunderground v.1.15,2013-08-08 09:55:00,
2013-08-08 06:00:00,66.7,64.6,30.12,SSW,196,5.0,5.0,93,0.00,,,0.00,Wunderground v.1.15,2013-08-08 10:00:00,
2013-08-08 06:05:00,66.8,64.7,30.11,SSW,210,5.0,5.0,93,0.00,,,0.00,Wunderground v.1.15,2013-08-08 10:05:00,
2013-08-08 06:10:00,66.7,64.6,30.11,SSW,213,4.0,4.0,93,0.00,,,0.00,Wunderground v.1.15,2013-08-08 10:10:00,
2013-08-08 06:15:00,66.7,64.6,30.11,SSW,206,3.0,4.0,93,0.00,,,0.00,Wunderground v.1.15,2013-08-08 10:15:00,
2013-08-08 06:20:00,66.7,64.6,30.11,South,185,2.0,2.0,93,0.00,,,0.00,Wunderground v.1.15,2013-08-08 10:20:00,
2013-08-08 06:25:00,66.8,64.7,30.12,South,175,1.0,2.0,93,0.00,,,0.00,Wunderground v.1.15,2013-08-08 10:25:00,
2013-08-08 06:35:00,66.7,64.6,30.12,SSW,192,1.0,1.0,93,0.00,,,0.00,Wunderground v.1.15,2013-08-08 10:35:00,
2013-08-08 06:40:00,66.6,64.5,30.12,SSW,192,1.0,1.0,93,0.00,,,0.00,Wunderground v.1.15,2013-08-08 10:40:00,
2013-08-08 06:45:00,66.5,64.4,30.13,SSW,195,1.0,1.0,93,0.00,,,0.00,Wunderground v.1.15,2013-08-08 10:45:00,
2013-08-08 06:55:00,66.5,64.4,30.12,SSW,192,1.0,1.0,93,0.00,,,0.00,Wunderground v.1.15,2013-08-08 10:55:00,
2013-08-08 07:00:00,66.5,64.4,30.13,WSW,248,1.0,3.0,93,0.00,,,0.00,Wunderground v.1.15,2013-08-08 11:00:00,
2013-08-08 07:05:00,66.6,64.5,30.13,WSW,254,2.0,3.0,93,0.00,,,0.00,Wunderground v.1.15,2013-08-08 11:05:00,
2013-08-08 07:10:00,66.7,64.6,30.13,WSW,254,1.0,1.0,93,0.00,,,0.00,Wunderground v.1.15,2013-08-08 11:10:00,
2013-08-08 07:20:00,66.9,64.5,30.13,WSW,254,0.0,1.0,92,0.00,,,0.00,Wunderground v.1.15,2013-08-08 11:20:00,
2013-08-08 07:25:00,66.9,64.5,30.13,WSW,241,0.0,1.0,92,0.00,,,0.00,Wunderground v.1.15,2013-08-08 11:25:00,
2013-08-08 07:30:00,67.1,64.7,30.14,SW,235,1.0,1.0,92,0.00,,,0.00,Wunderground v.1.15,2013-08-08 11:30:00,
2013-08-08 07:35:00,67.0,64.6,30.14,SW,235,1.0,1.0,92,0.00,,,0.00,Wunderground v.1.15,2013-08-08 11:35:00,
2013-08-08 07:40:00,67.0,64.6,30.14,SW,235,1.0,1.0,92,0.00,,,0.00,Wunderground v.1.15,2013-08-08 11:40:00,
2013-08-08 07:45:00,67.0,64.6,30.14,SW,225,0.0,1.0,92,0.00,,,0.00,Wunderground v.1.15,2013-08-08 11:45:00,
2013-08-08 07:50:00,67.0,64.9,30.13,South,186,1.0,1.0,93,0.00,,,0.00,Wunderground v.1.15,2013-08-08 11:50:00,
2013-08-08 07:55:00,67.0,64.6,30.14,SW,233,1.0,3.0,92,0.00,,,0.00,Wunderground v.1.15,2013-08-08 11:55:00,
2013-08-08 08:00:00,67.0,64.6,30.14,SSW,211,1.0,2.0,92,0.00,,,0.00,Wunderground v.1.15,2013-08-08 12:00:00,
2013-08-08 08:10:00,67.0,64.6,30.15,SSW,213,4.0,5.0,92,0.00,,,0.00,Wunderground v.1.15,2013-08-08 12:10:00,
2013-08-08 08:15:00,67.1,64.7,30.14,SSW,213,4.0,5.0,92,0.00,,,0.00,Wunderground v.1.15,2013-08-08 12:15:00,
2013-08-08 08:20:00,67.4,65.0,30.14,SW,223,4.0,4.0,92,0.00,,,0.00,Wunderground v.1.15,2013-08-08 12:20:00,
2013-08-08 08:25:00,67.6,64.9,30.14,WSW,238,5.0,6.0,91,0.00,,,0.00,Wunderground v.1.15,2013-08-08 12:25:00,
2013-08-08 08:30:00,67.7,64.7,30.14,South,182,6.0,6.0,90,0.00,,,0.00,Wunderground v.1.15,2013-08-08 12:30:00,
2013-08-08 08:35:00,68.0,65.0,30.14,SSW,202,5.0,7.0,90,0.00,,,0.00,Wunderground v.1.15,2013-08-08 12:35:00,
2013-08-08 08:40:00,68.2,65.2,30.14,SSW,208,4.0,4.0,90,0.00,,,0.00,Wunderground v.1.15,2013-08-08 12:40:00,
2013-08-08 08:45:00,68.4,65.4,30.15,SW,228,3.0,4.0,90,0.00,,,0.00,Wunderground v.1.15,2013-08-08 12:45:00,
2013-08-08 08:50:00,68.5,65.1,30.15,SW,215,4.0,5.0,89,0.00,,,0.00,Wunderground v.1.15,2013-08-08 12:50:00,
2013-08-08 09:00:00,69.0,65.3,30.15,SSW,193,5.0,9.0,88,0.00,,,0.00,Wunderground v.1.15,2013-08-08 13:00:00,
2013-08-08 09:05:00,69.3,65.3,30.14,SW,226,7.0,9.0,87,0.00,,,0.00,Wunderground v.1.15,2013-08-08 13:05:00,
2013-08-08 09:10:00,69.5,65.5,30.14,West,267,8.0,8.0,87,0.00,,,0.00,Wunderground v.1.15,2013-08-08 13:10:00,
2013-08-08 09:15:00,69.7,65.7,30.14,SW,229,7.0,8.0,87,0.00,,,0.00,Wunderground v.1.15,2013-08-08 13:15:00,
2013-08-08 09:20:00,70.3,65.9,30.14,SW,217,6.0,11.0,86,0.00,,,0.00,Wunderground v.1.15,2013-08-08 13:20:00,
2013-08-08 09:25:00,70.7,66.0,30.13,SSW,198,5.0,11.0,85,0.00,,,0.00,Wunderground v.1.15,2013-08-08 13:25:00,
2013-08-08 09:35:00,72.2,66.7,30.12,SSW,202,2.0,3.0,83,0.00,,,0.00,Wunderground v.1.15,2013-08-08 13:35:00,
2013-08-08 09:45:00,72.7,66.9,30.13,WSW,247,2.0,5.0,82,0.00,,,0.00,Wunderground v.1.15,2013-08-08 13:45:00,
2013-08-08 09:50:00,72.4,66.6,30.13,SW,226,3.0,4.0,82,0.00,,,0.00,Wunderground v.1.15,2013-08-08 13:50:00,
2013-08-08 09:55:00,72.2,66.0,30.12,SW,215,4.0,6.0,81,0.00,,,0.00,Wunderground v.1.15,2013-08-08 13:55:00,
2013-08-08 10:00:00,72.4,66.6,30.12,South,177,3.0,3.0,82,0.00,,,0.00,Wunderground v.1.15,2013-08-08 14:00:00,
2013-08-08 10:05:00,73.1,66.9,30.12,SSW,192,2.0,3.0,81,0.00,,,0.00,Wunderground v.1.15,2013-08-08 14:05:00,
2013-08-08 10:10:00,73.9,67.3,30.12,South,184,1.0,1.0,80,0.00,,,0.00,Wunderground v.1.15,2013-08-08 14:10:00,
2013-08-08 10:15:00,74.3,67.4,30.12,SW,228,2.0,5.0,79,0.00,,,0.00,Wunderground v.1.15,2013-08-08 14:15:00,
2013-08-08 10:20:00,74.0,67.4,30.13,South,191,3.0,3.0,80,0.00,,,0.00,Wunderground v.1.15,2013-08-08 14:20:00,
2013-08-08 10:25:00,74.6,67.7,30.12,SW,222,3.0,6.0,79,0.00,,,0.00,Wunderground v.1.15,2013-08-08 14:25:00,
2013-08-08 10:35:00,74.1,67.2,30.12,SW,225,4.0,8.0,79,0.00,,,0.00,Wunderground v.1.15,2013-08-08 14:35:00,
2013-08-08 10:40:00,73.8,66.9,30.11,South,186,4.0,4.0,79,0.00,,,0.00,Wunderground v.1.15,2013-08-08 14:40:00,
2013-08-08 10:45:00,74.2,66.5,30.11,SSE,163,4.0,4.0,77,0.00,,,0.00,Wunderground v.1.15,2013-08-08 14:45:00,
2013-08-08 10:50:00,74.8,66.7,30.11,South,183,3.0,3.0,76,0.00,,,0.00,Wunderground v.1.15,2013-08-08 14:50:00,
2013-08-08 10:55:00,75.5,67.8,30.11,SE,144,3.0,3.0,77,0.00,,,0.00,Wunderground v.1.15,2013-08-08 14:55:00,
2013-08-08 11:00:00,76.3,67.8,30.12,SSE,162,2.0,2.0,75,0.00,,,0.00,Wunderground v.1.15,2013-08-08 15:00:00,
2013-08-08 11:10:00,75.6,67.5,30.11,SE,131,3.0,4.0,76,0.00,,,0.00,Wunderground v.1.15,2013-08-08 15:10:00,
2013-08-08 11:15:00,75.7,67.2,30.12,South,188,4.0,4.0,75,0.00,,,0.00,Wunderground v.1.15,2013-08-08 15:15:00,
2013-08-08 11:20:00,76.0,68.3,30.11,West,260,4.0,4.0,77,0.00,,,0.00,Wunderground v.1.15,2013-08-08 15:20:00,
2013-08-08 11:25:00,76.0,68.3,30.11,South,180,4.0,4.0,77,0.00,,,0.00,Wunderground v.1.15,2013-08-08 15:25:00,
2013-08-08 11:30:00,76.0,67.5,30.11,SSW,192,3.0,3.0,75,0.00,,,0.00,Wunderground v.1.15,2013-08-08 15:30:00,
2013-08-08 11:35:00,77.3,68.4,30.11,SE,138,3.0,3.0,74,0.00,,,0.00,Wunderground v.1.15,2013-08-08 15:35:00,
2013-08-08 11:40:00,78.2,68.4,30.11,SSE,163,3.0,3.0,72,0.00,,,0.00,Wunderground v.1.15,2013-08-08 15:40:00,
2013-08-08 11:50:00,78.2,68.4,30.11,SSE,150,3.0,5.0,72,0.00,,,0.00,Wunderground v.1.15,2013-08-08 15:50:00,
2013-08-08 11:55:00,78.7,68.5,30.11,SSE,167,4.0,5.0,71,0.00,,,0.00,Wunderground v.1.15,2013-08-08 15:55:00,
2013-08-08 12:05:00,78.5,67.9,30.11,South,169,4.0,6.0,70,0.00,,,0.00,Wunderground v.1.15,2013-08-08 16:05:00,
2013-08-08 12:10:00,77.5,68.2,30.11,SSW,200,4.0,4.0,73,0.00,,,0.00,Wunderground v.1.15,2013-08-08 16:10:00,
2013-08-08 12:15:00,77.3,68.4,30.11,South,185,4.0,4.0,74,0.00,,,0.00,Wunderground v.1.15,2013-08-08 16:15:00,
2013-08-08 12:20:00,77.1,68.2,30.11,SSW,209,5.0,7.0,74,0.00,,,0.00,Wunderground v.1.15,2013-08-08 16:20:00,
2013-08-08 12:25:00,77.6,68.3,30.11,SSW,200,6.0,8.0,73,0.00,,,0.00,Wunderground v.1.15,2013-08-08 16:25:00,
2013-08-08 12:30:00,77.7,68.4,30.11,SW,216,7.0,7.0,73,0.00,,,0.00,Wunderground v.1.15,2013-08-08 16:30:00,
2013-08-08 12:35:00,77.5,68.6,30.11,SSE,163,6.0,7.0,74,0.00,,,0.00,Wunderground v.1.15,2013-08-08 16:35:00,
2013-08-08 12:45:00,78.0,67.8,30.11,South,189,6.0,6.0,71,0.00,,,0.00,Wunderground v.1.15,2013-08-08 16:45:00,
2013-08-08 12:50:00,77.8,67.6,30.10,SSW,203,7.0,8.0,71,0.00,,,0.00,Wunderground v.1.15,2013-08-08 16:50:00,
2013-08-08 12:55:00,77.9,68.5,30.11,SSW,201,7.0,8.0,73,0.00,,,0.00,Wunderground v.1.15,2013-08-08 16:55:00,
2013-08-08 13:00:00,77.6,68.3,30.11,SSE,165,6.0,6.0,73,0.00,,,0.00,Wunderground v.1.15,2013-08-08 17:00:00,
2013-08-08 13:05:00,76.9,67.6,30.11,SW,227,6.0,6.0,73,0.00,,,0.00,Wunderground v.1.15,2013-08-08 17:05:00,
2013-08-08 13:10:00,76.6,68.1,30.11,SW,226,7.0,14.0,75,0.00,,,0.00,Wunderground v.1.15,2013-08-08 17:10:00,
2013-08-08 13:15:00,76.9,68.4,30.12,South,170,7.0,14.0,75,0.00,,,0.00,Wunderground v.1.15,2013-08-08 17:15:00,
2013-08-08 13:20:00,77.7,68.7,30.11,South,186,7.0,8.0,74,0.00,,,0.00,Wunderground v.1.15,2013-08-08 17:20:00,
2013-08-08 13:30:00,77.8,68.4,30.11,South,182,7.0,7.0,73,0.00,,,0.00,Wunderground v.1.15,2013-08-08 17:30:00,
2013-08-08 13:35:00,77.5,68.6,30.12,SW,229,6.0,7.0,74,0.00,,,0.00,Wunderground v.1.15,2013-08-08 17:35:00,
2013-08-08 13:40:00,78.3,68.5,30.12,SSW,194,6.0,8.0,72,0.00,,,0.00,Wunderground v.1.15,2013-08-08 17:40:00,
2013-08-08 13:45:00,78.4,69.0,30.12,South,184,7.0,8.0,73,0.00,,,0.00,Wunderground v.1.15,2013-08-08 17:45:00,
2013-08-08 13:50:00,79.1,68.9,30.12,SSW,209,7.0,7.0,71,0.00,,,0.00,Wunderground v.1.15,2013-08-08 17:50:00,
2013-08-08 14:00:00,78.6,68.4,30.11,SSW,201,7.0,14.0,71,0.00,,,0.00,Wunderground v.1.15,2013-08-08 18:00:00,
2013-08-08 14:05:00,78.5,68.7,30.11,WSW,240,8.0,14.0,72,0.00,,,0.00,Wunderground v.1.15,2013-08-08 18:05:00,
2013-08-08 14:10:00,78.9,69.1,30.11,ESE,117,7.0,7.0,72,0.00,,,0.00,Wunderground v.1.15,2013-08-08 18:10:00,
2013-08-08 14:15:00,79.0,69.6,30.11,SW,232,6.0,12.0,73,0.00,,,0.00,Wunderground v.1.15,2013-08-08 18:15:00,
2013-08-08 14:20:00,79.0,69.2,30.11,SE,138,7.0,7.0,72,0.00,,,0.00,Wunderground v.1.15,2013-08-08 18:20:00,
2013-08-08 14:25:00,79.4,69.6,30.11,South,171,6.0,7.0,72,0.00,,,0.00,Wunderground v.1.15,2013-08-08 18:25:00,
2013-08-08 14:30:00,79.5,69.7,30.10,WSW,237,5.0,5.0,72,0.00,,,0.00,Wunderground v.1.15,2013-08-08 18:30:00,
2013-08-08 14:35:00,79.8,69.1,30.10,SW,215,4.0,5.0,70,0.00,,,0.00,Wunderground v.1.15,2013-08-08 18:35:00,
2013-08-08 14:45:00,79.2,69.0,30.10,West,259,7.0,13.0,71,0.00,,,0.00,Wunderground v.1.15,2013-08-08 18:45:00,
2013-08-08 14:50:00,79.5,68.4,30.10,West,263,7.0,8.0,69,0.00,,,0.00,Wunderground v.1.15,2013-08-08 18:50:00,
2013-08-08 14:55:00,79.6,69.0,30.10,SW,221,7.0,8.0,70,0.00,,,0.00,Wunderground v.1.15,2013-08-08 18:55:00,
2013-08-08 15:00:00,79.9,68.8,30.10,WSW,246,7.0,11.0,69,0.00,,,0.00,Wunderground v.1.15,2013-08-08 19:00:00,
2013-08-08 15:05:00,80.1,68.6,30.10,WSW,252,7.0,11.0,68,0.00,,,0.00,Wunderground v.1.15,2013-08-08 19:05:00,
2013-08-08 15:10:00,79.9,68.4,30.10,SSW,213,6.0,6.0,68,0.00,,,0.00,Wunderground v.1.15,2013-08-08 19:10:00,
2013-08-08 15:15:00,80.3,69.6,30.09,SSW,194,5.0,6.0,70,0.00,,,0.00,Wunderground v.1.15,2013-08-08 19:15:00,
2013-08-08 15:25:00,81.0,69.4,30.10,SSW,202,4.0,4.0,68,0.00,,,0.00,Wunderground v.1.15,2013-08-08 19:25:00,
2013-08-08 15:30:00,80.3,69.2,30.10,SW,226,5.0,5.0,69,0.00,,,0.00,Wunderground v.1.15,2013-08-08 19:30:00,
2013-08-08 15:35:00,80.5,68.5,30.09,SSW,194,5.0,5.0,67,0.00,,,0.00,Wunderground v.1.15,2013-08-08 19:35:00,
2013-08-08 15:40:00,81.3,69.7,30.09,WSW,242,4.0,4.0,68,0.00,,,0.00,Wunderground v.1.15,2013-08-08 19:40:00,
2013-08-08 15:45:00,81.4,69.8,30.09,SSW,194,4.0,4.0,68,0.00,,,0.00,Wunderground v.1.15,2013-08-08 19:45:00,
2013-08-08 15:50:00,81.6,69.6,30.08,South,182,3.0,3.0,67,0.00,,,0.00,Wunderground v.1.15,2013-08-08 19:50:00,
2013-08-08 15:55:00,81.6,69.1,30.08,SW,221,3.0,3.0,66,0.00,,,0.00,Wunderground v.1.15,2013-08-08 19:55:00,
2013-08-08 16:00:00,81.1,69.5,30.08,SW,223,3.0,4.0,68,0.00,,,0.00,Wunderground v.1.15,2013-08-08 20:00:00,
2013-08-08 16:10:00,81.8,68.9,30.08,SW,229,4.0,4.0,65,0.00,,,0.00,Wunderground v.1.15,2013-08-08 20:10:00,
2013-08-08 16:15:00,81.7,68.8,30.08,WSW,248,5.0,5.0,65,0.00,,,0.00,Wunderground v.1.15,2013-08-08 20:15:00,
2013-08-08 16:20:00,81.7,70.1,30.07,WSW,243,3.0,6.0,68,0.00,,,0.00,Wunderground v.1.15,2013-08-08 20:20:00,
2013-08-08 16:25:00,81.5,69.9,30.07,ESE,122,3.0,6.0,68,0.00,,,0.00,Wunderground v.1.15,2013-08-08 20:25:00,
2013-08-08 16:30:00,81.5,69.9,30.07,SSW,200,3.0,5.0,68,0.00,,,0.00,Wunderground v.1.15,2013-08-08 20:30:00,
2013-08-08 16:35:00,81.2,70.1,30.07,South,190,3.0,5.0,69,0.00,,,0.00,Wunderground v.1.15,2013-08-08 20:35:00,
2013-08-08 16:40:00,80.7,70.4,30.07,South,185,3.0,3.0,71,0.00,,,0.00,Wunderground v.1.15,2013-08-08 20:40:00,
2013-08-08 16:50:00,80.2,70.8,30.07,South,180,3.0,3.0,73,0.00,,,0.00,Wunderground v.1.15,2013-08-08 20:50:00,
2013-08-08 16:55:00,80.1,71.1,30.06,South,175,2.0,3.0,74,0.00,,,0.00,Wunderground v.1.15,2013-08-08 20:55:00,
2013-08-08 17:00:00,80.0,71.4,30.06,South,190,2.0,2.0,75,0.00,,,0.00,Wunderground v.1.15,2013-08-08 21:00:00,
2013-08-08 17:05:00,79.7,71.1,30.06,SSE,168,2.0,2.0,75,0.00,,,0.00,Wunderground v.1.15,2013-08-08 21:05:00,
2013-08-08 17:10:00,79.6,71.4,30.07,SSW,196,2.0,2.0,76,0.00,,,0.00,Wunderground v.1.15,2013-08-08 21:10:00,
2013-08-08 17:20:00,79.1,70.9,30.07,South,180,3.0,3.0,76,0.00,,,0.00,Wunderground v.1.15,2013-08-08 21:20:00,
2013-08-08 17:25:00,78.9,71.1,30.07,SSW,211,2.0,3.0,77,0.00,,,0.00,Wunderground v.1.15,2013-08-08 21:25:00,
2013-08-08 17:40:00,77.9,71.2,30.07,South,180,2.0,2.0,80,0.00,,,0.00,Wunderground v.1.15,2013-08-08 21:40:00,
2013-08-08 17:50:00,77.6,71.3,30.07,South,180,1.0,1.0,81,0.00,,,0.00,Wunderground v.1.15,2013-08-08 21:50:00,
2013-08-08 18:00:00,77.3,71.7,30.08,South,183,1.0,1.0,83,0.00,,,0.00,Wunderground v.1.15,2013-08-08 22:00:00,
2013-08-08 18:05:00,77.0,71.4,30.08,South,183,1.0,1.0,83,0.00,,,0.00,Wunderground v.1.15,2013-08-08 22:05:00,
2013-08-08 18:10:00,77.1,71.2,30.07,South,178,1.0,1.0,82,0.00,,,0.00,Wunderground v.1.15,2013-08-08 22:10:00,
2013-08-08 18:15:00,77.1,71.2,30.07,SSW,196,2.0,5.0,82,0.00,,,0.00,Wunderground v.1.15,2013-08-08 22:15:00,
2013-08-08 18:20:00,76.9,71.0,30.07,South,190,3.0,3.0,82,0.00,,,0.00,Wunderground v.1.15,2013-08-08 22:20:00,
2013-08-08 18:25:00,76.9,71.0,30.07,SSE,164,3.0,3.0,82,0.00,,,0.00,Wunderground v.1.15,2013-08-08 22:25:00,
2013-08-08 18:30:00,76.8,70.9,30.06,South,184,3.0,3.0,82,0.00,,,0.00,Wunderground v.1.15,2013-08-08 22:30:00,
2013-08-08 18:35:00,76.6,71.0,30.08,SSW,196,3.0,5.0,83,0.00,,,0.00,Wunderground v.1.15,2013-08-08 22:35:00,
2013-08-08 18:40:00,76.6,71.0,30.07,South,183,3.0,3.0,83,0.00,,,0.00,Wunderground v.1.15,2013-08-08 22:40:00,
2013-08-08 18:50:00,76.4,71.2,30.07,SW,234,1.0,1.0,84,0.00,,,0.00,Wunderground v.1.15,2013-08-08 22:50:00,
2013-08-08 18:55:00,76.2,71.0,30.07,SSE,164,1.0,1.0,84,0.00,,,0.00,Wunderground v.1.15,2013-08-08 22:55:00,
2013-08-08 19:00:00,75.9,70.7,30.07,SSW,196,1.0,1.0,84,0.00,,,0.00,Wunderground v.1.15,2013-08-08 23:00:00,
2013-08-08 19:10:00,75.7,70.9,30.08,SW,215,1.0,4.0,85,0.00,,,0.00,Wunderground v.1.15,2013-08-08 23:10:00,
2013-08-08 19:15:00,75.3,70.5,30.07,SW,217,2.0,4.0,85,0.00,,,0.00,Wunderground v.1.15,2013-08-08 23:15:00,
2013-08-08 19:20:00,75.3,70.5,30.06,SSW,198,1.0,3.0,85,0.00,,,0.00,Wunderground v.1.15,2013-08-08 23:20:00,
2013-08-08 19:30:00,74.9,70.4,30.06,SW,221,2.0,2.0,86,0.00,,,0.00,Wunderground v.1.15,2013-08-08 23:30:00,
2013-08-08 19:35:00,74.8,70.7,30.06,South,182,2.0,4.0,87,0.00,,,0.00,Wunderground v.1.15,2013-08-08 23:35:00,
2013-08-08 19:40:00,75.0,70.5,30.06,South,182,4.0,5.0,86,0.00,,,0.00,Wunderground v.1.15,2013-08-08 23:40:00,
2013-08-08 19:45:00,75.1,70.6,30.05,South,185,4.0,8.0,86,0.00,,,0.00,Wunderground v.1.15,2013-08-08 23:45:00,
2013-08-08 19:50:00,75.2,70.4,30.06,South,177,4.0,4.0,85,0.00,,,0.00,Wunderground v.1.15,2013-08-08 23:50:00,
2013-08-08 19:55:00,75.2,70.4,30.06,SSW,209,4.0,4.0,85,0.00,,,0.00,Wunderground v.1.15,2013-08-08 23:55:00,
2013-08-08 20:05:00,74.7,70.6,30.07,SSW,208,3.0,6.0,87,0.00,,,0.00,Wunderground v.1.15,2013-08-09 00:05:00,
2013-08-08 20:10:00,74.4,70.6,30.07,ESE,116,3.0,3.0,88,0.00,,,0.00,Wunderground v.1.15,2013-08-09 00:10:00,
2013-08-08 20:15:00,74.2,70.4,30.07,ESE,116,1.0,3.0,88,0.00,,,0.00,Wunderground v.1.15,2013-08-09 00:15:00,
2013-08-08 20:20:00,74.1,70.6,30.06,ESE,116,1.0,1.0,89,0.00,,,0.00,Wunderground v.1.15,2013-08-09 00:20:00,
2013-08-08 20:30:00,73.7,70.6,30.07,ESE,116,0.0,1.0,90,0.00,,,0.00,Wunderground v.1.15,2013-08-09 00:30:00,
2013-08-08 20:35:00,73.6,70.8,30.08,ESE,116,0.0,1.0,91,0.00,,,0.00,Wunderground v.1.15,2013-08-09 00:35:00,
2013-08-08 20:40:00,73.3,70.5,30.08,ESE,116,0.0,1.0,91,0.00,,,0.00,Wunderground v.1.15,2013-08-09 00:40:00,
2013-08-08 20:45:00,73.0,70.5,30.08,ESE,116,0.0,1.0,92,0.00,,,0.00,Wunderground v.1.15,2013-08-09 00:45:00,
2013-08-08 20:50:00,72.8,70.3,30.08,ESE,116,0.0,1.0,92,0.00,,,0.00,Wunderground v.1.15,2013-08-09 00:50:00,
2013-08-08 20:55:00,72.5,70.0,30.08,ESE,117,1.0,1.0,92,0.00,,,0.00,Wunderground v.1.15,2013-08-09 00:55:00,
2013-08-08 21:05:00,71.8,69.7,30.08,ESE,117,1.0,1.0,93,0.00,,,0.00,Wunderground v.1.15,2013-08-09 01:05:00,
2013-08-08 21:10:00,71.6,69.8,30.08,South,183,1.0,1.0,94,0.00,,,0.00,Wunderground v.1.15,2013-08-09 01:10:00,
2013-08-08 21:15:00,71.6,70.1,30.08,South,183,1.0,1.0,95,0.00,,,0.00,Wunderground v.1.15,2013-08-09 01:15:00,
2013-08-08 21:20:00,71.8,70.3,30.08,South,183,1.0,1.0,95,0.00,,,0.00,Wunderground v.1.15,2013-08-09 01:20:00,
2013-08-08 21:25:00,71.8,70.0,30.08,South,183,0.0,1.0,94,0.00,,,0.00,Wunderground v.1.15,2013-08-09 01:25:00,
2013-08-08 21:40:00,71.4,69.6,30.08,South,183,1.0,1.0,94,0.00,,,0.00,Wunderground v.1.15,2013-08-09 01:40:00,
2013-08-08 21:45:00,71.4,69.9,30.08,South,183,1.0,1.0,95,0.00,,,0.00,Wunderground v.1.15,2013-08-09 01:45:00,
2013-08-08 21:50:00,71.4,69.9,30.08,South,187,1.0,2.0,95,0.00,,,0.00,Wunderground v.1.15,2013-08-09 01:50:00,
2013-08-08 21:55:00,71.5,70.0,30.07,South,187,1.0,2.0,95,0.00,,,0.00,Wunderground v.1.15,2013-08-09 01:55:00,
2013-08-08 22:05:00,71.7,70.2,30.07,SSW,200,1.0,3.0,95,0.00,,,0.00,Wunderground v.1.15,2013-08-09 02:05:00,
2013-08-08 22:10:00,71.7,70.2,30.07,South,182,0.0,1.0,95,0.00,,,0.00,Wunderground v.1.15,2013-08-09 02:10:00,
2013-08-08 22:20:00,71.7,69.9,30.07,NNW,327,1.0,1.0,94,0.22,,,0.03,Wunderground v.1.15,2013-08-09 02:20:00,
2013-08-08 22:25:00,71.8,70.0,30.07,NNW,327,1.0,1.0,94,0.08,,,0.03,Wunderground v.1.15,2013-08-09 02:25:00,
2013-08-08 22:35:00,71.4,69.3,30.07,West,276,1.0,2.0,93,0.06,,,0.04,Wunderground v.1.15,2013-08-09 02:35:00,
2013-08-08 22:40:00,71.1,69.0,30.07,SSW,194,2.0,2.0,93,0.04,,,0.04,Wunderground v.1.15,2013-08-09 02:40:00,
2013-08-08 22:50:00,70.5,68.4,30.06,West,273,1.0,3.0,93,0.00,,,0.04,Wunderground v.1.15,2013-08-09 02:50:00,
2013-08-08 22:55:00,70.1,67.3,30.06,WSW,242,2.0,3.0,91,0.00,,,0.04,Wunderground v.1.15,2013-08-09 02:55:00,
2013-08-08 23:00:00,69.8,67.1,30.06,South,189,2.0,2.0,91,0.00,,,0.04,Wunderground v.1.15,2013-08-09 03:00:00,
2013-08-08 23:05:00,69.7,67.3,30.06,South,189,1.0,2.0,92,0.00,,,0.04,Wunderground v.1.15,2013-08-09 03:05:00,
2013-08-08 23:15:00,69.3,67.2,30.06,SSW,192,1.0,3.0,93,0.00,,,0.04,Wunderground v.1.15,2013-08-09 03:15:00,
2013-08-08 23:20:00,69.2,67.1,30.06,SSW,196,1.0,3.0,93,0.00,,,0.04,Wunderground v.1.15,2013-08-09 03:20:00,
2013-08-08 23:25:00,69.3,67.5,30.06,South,177,2.0,3.0,94,0.00,,,0.04,Wunderground v.1.15,2013-08-09 03:25:00,
2013-08-08 23:30:00,69.3,67.5,30.06,South,169,2.0,2.0,94,0.00,,,0.04,Wunderground v.1.15,2013-08-09 03:30:00,
2013-08-08 23:35:00,69.4,67.6,30.06,South,180,2.0,3.0,94,0.00,,,0.04,Wunderground v.1.15,2013-08-09 03:35:00,
2013-08-08 23:45:00,69.7,68.2,30.05,SSE,157,2.0,2.0,95,0.00,,,0.04,Wunderground v.1.15,2013-08-09 03:45:00,
2013-08-08 23:50:00,69.8,68.3,30.05,SSW,201,1.0,1.0,95,0.00,,,0.04,Wunderground v.1.15,2013-08-09 03:50:00,